首页
METAR-TAF:

METAR-TAF

机场 :

洛杉磯國際機場

洛杉矶, 加利福尼亚州, 美国

纬度: 33-56-17N, 经度: 118-23-20W, 海拔: 38米

当前天气观测

该预报发布于19分钟前的16:53 UTC
风速9节,风向
温度 14°C
湿度 94%
气压 1022 hPa
能見度: 8.0公里
阴天层高于500英尺
轻雾

METAR: KLAX 161653Z 08009KT 5SM BR OVC005 14/13 A3017 RMK AO2 SLP215 T01440133

时间: 09:12 (17:12 UTC)

预报

该预报发布于1小时和43分钟前的15:29 UTC
预报有效从16日的 15点(UTC)到 17日的 18点(UTC)
风速5节,风向
能見度: 3.2公里
阴天层高于700英尺
小雨, 轻雾
从 16日的 1700点(UTC)
风速6节,风向东转东南
能見度: 9.7公里
多云层高于2500英尺
阴天层高于4000英尺
小雨, 轻雾
从 17日的 0100点(UTC)
风速12节,风向东转东南
能見度: 6.4公里
多云层高于800英尺
阴天层高于2000英尺
雨, 轻雾
从 17日的 0900点(UTC)
风速16节,风向南转南东
能見度: 3.2公里
阴天层高于1500英尺
雨, 轻雾
从 17日的 1700点(UTC)
风速16节,风向南转南东
能見度: 9.7公里
散云层高于1000英尺
多云层高于2500英尺
阴天层高于4000英尺
小雨, 轻雾

TAF: KLAX 161529Z 1615/1718 09005KT 2SM -RA BR OVC007 FM161700 11006KT 6SM -RA BR BKN025 OVC040 FM170100 12012KT 4SM RA BR BKN008 OVC020 FM170900 16016KT 2SM RA BR OVC015 FM171700 16016KT 6SM -RA BR SCT010 BKN025 OVC040

超过4000个机场的气象观测和天气预报(METAR&TAF报告)。

可查询的气象台以黄色和红色小点在地图上表示。

将鼠标移到小点上方,可查看气象台名称。

然后点击查看天气观测和预报。

如需切换地图:点击带黑十字的绿色按钮放大地图;点击带横线的绿色按钮缩小地图;或者点击绿色箭头查看邻近地区的地图。


METAR-TAF: